Sunday, November 18, 2018, 3:07 PM GMT
Back to Local

CYQB, Quebec, Que

Location: , , Canada Lat: 46.8
Local Time: 3:07 PM GMT (15:07 GMT) Lon: -71.383
Time Zone: GMT Elev: 229 ft

Show me the last for .
Show Decoded

2018-11-18 14:00 METAR CYQB 181400Z 26006KT 30SM FEW012 FEW035 M09/M15 A3035 RMK SF1SC1 SF TR
                 SLP286 =
2018-11-18 13:00 METAR CYQB 181300Z 27006KT 30SM FEW035 M10/M15 A3034 RMK SC1 SLP283 =
2018-11-18 12:00 METAR CYQB 181200Z 27007KT 30SM FEW035 M11/M15 A3032 RMK SC1 SLP276 =
2018-11-18 11:00 METAR CYQB 181100Z 26010KT 15SM FEW032 M11/M15 A3030 RMK SC1 SLP267 =
2018-11-18 10:00 METAR CYQB 181000Z 26007KT 15SM FEW032 M10/M14 A3027 RMK SC1 SLP257 =
2018-11-18 09:37 METAR CYQB 180937Z 25008KT 15SM SCT031 M09/M13 A3026 RMK SC3 SLP255 =
2018-11-18 09:00 METAR CYQB 180900Z 26008KT 15SM -SHSN BKN031 M09/M12 A3026 RMK SC7 CVCTV CLDS
                 EMBD VRY LGT PCPN SLP253 =
2018-11-18 08:44 METAR CYQB 180844Z 25009KT 15SM -SHSN BKN031 M08/M12 A3025 RMK SC7 SLP252 =
2018-11-18 08:00 METAR CYQB 180800Z 25008KT 15SM BKN032 M09/M12 A3023 RMK SC5 SLP245 =
2018-11-18 07:00 METAR CYQB 180700Z 25012KT 15SM FEW031 SCT070 M10/M12 A3022 RMK SC2AC1 SLP241 =
2018-11-18 06:00 METAR CYQB 180600Z 27010KT 15SM FEW030 FEW070 M07/M12 A3020 RMK SC1AC1 SLP233 =
2018-11-18 05:00 METAR CYQB 180500Z 25009KT 15SM FEW070 M09/M12 A3019 RMK AC1 SLP229 =
2018-11-18 04:00 METAR CYQB 180400Z 27010G17KT 15SM FEW070 M06/M11 A3016 RMK AC1 SLP220 =
2018-11-18 03:00 METAR CYQB 180300Z 26011KT 15SM FEW070 M06/M10 A3014 RMK AC1 SLP212 =
2018-11-18 02:00 METAR CYQB 180200Z 25008KT 15SM FEW030 FEW070 M07/M10 A3011 RMK SC1AC1 SC TR AC
                 TR SLP203 =
2018-11-18 01:00 METAR CYQB 180100Z 26009KT 15SM FEW030 FEW070 M06/M09 A3009 RMK SC1AC1 SC TR
                 SLP195 =
2018-11-18 00:00 METAR CYQB 180000Z 28007KT 15SM FEW030 FEW045 SCT070 M04/M07 A3006 RMK SC1SC1AC1
                 SLP187 =
2018-11-17 23:00 METAR CYQB 172300Z 27009KT 15SM FEW042 M03/M08 A3003 RMK SC2 DIST SH SW SLP177 =
2018-11-17 22:00 METAR CYQB 172200Z 27006KT 15SM FEW033 M02/M06 A3001 RMK SC1 SLP168 =
2018-11-17 21:00 METAR CYQB 172100Z 28005KT 30SM FEW015 SCT029 SCT040 BKN090 M01/M05 A2998 RMK
                 SF1SC3SC1AC1 SC TR SLP158 =
2018-11-17 20:00 METAR CYQB 172000Z 25012KT 30SM FEW015 SCT036 BKN090 M01/M03 A2994 RMK SF1SC2AC4
                 SLP144 =
2018-11-17 19:00 METAR CYQB 171900Z 26009KT 30SM FEW009 BKN035 BKN090 M01/M03 A2992 RMK SF1SC5AC1
                 SLP138 =
2018-11-17 18:00 METAR CYQB 171800Z 26011G17KT 30SM FEW009 BKN035 BKN090 M01/M04 A2991 RMK
                 SF1SC5AC1 SLP136 =
2018-11-17 17:00 METAR CYQB 171700Z 26013KT 15SM FEW009 BKN035 OVC090 M01/M04 A2990 RMK SF2SC5AC1
                 SLP133 =
2018-11-17 16:00 METAR CYQB 171600Z 25008KT 15SM FEW009 BKN037 M02/M05 A2990 RMK SF2SC4 SLP130 =
2018-11-17 15:20 METAR CYQB 171520Z 25010KT 8SM FEW009 BKN037 M03/M05 A2990 RMK SF2SC5 SLP130 =

Support USWX by starting your Amazon purchase here.